sensor_id;sensor_type;location;lat;lon;timestamp;pressure;altitude;pressure_sealevel;temperature;humidity
35918;BME280;22011;59.912;30.300;2022-10-16T00:01:16;101653.47;;;12.10;69.38
35918;BME280;22011;59.912;30.300;2022-10-16T00:03:45;101653.22;;;12.04;69.56
35918;BME280;22011;59.912;30.300;2022-10-16T00:06:14;101655.75;;;12.05;69.26
35918;BME280;22011;59.912;30.300;2022-10-16T00:08:44;101646.13;;;12.13;69.29
35918;BME280;22011;59.912;30.300;2022-10-16T00:11:14;101646.59;;;12.26;68.44
35918;BME280;22011;59.912;30.300;2022-10-16T00:13:43;101641.00;;;12.19;69.08
35918;BME280;22011;59.912;30.300;2022-10-16T00:16:11;101649.94;;;12.10;69.54
35918;BME280;22011;59.912;30.300;2022-10-16T00:18:40;101651.72;;;12.01;69.67
35918;BME280;22011;59.912;30.300;2022-10-16T00:21:09;101651.03;;;11.99;69.45
35918;BME280;22011;59.912;30.300;2022-10-16T00:23:37;101649.34;;;11.98;69.32
35918;BME280;22011;59.912;30.300;2022-10-16T00:26:09;101654.31;;;11.93;69.93
35918;BME280;22011;59.912;30.300;2022-10-16T00:28:37;101654.22;;;11.85;70.02
35918;BME280;22011;59.912;30.300;2022-10-16T00:31:06;101660.03;;;11.98;69.13
35918;BME280;22011;59.912;30.300;2022-10-16T00:33:34;101657.34;;;11.98;69.72
35918;BME280;22011;59.912;30.300;2022-10-16T00:36:04;101648.28;;;11.91;69.60
35918;BME280;22011;59.912;30.300;2022-10-16T00:38:32;101649.72;;;11.86;70.24
35918;BME280;22011;59.912;30.300;2022-10-16T00:40:59;101646.91;;;11.87;70.16
35918;BME280;22011;59.912;30.300;2022-10-16T00:43:37;101641.19;;;12.00;70.54
35918;BME280;22011;59.912;30.300;2022-10-16T00:46:12;101642.25;;;11.89;70.69
35918;BME280;22011;59.912;30.300;2022-10-16T00:48:42;101650.31;;;11.79;70.38
35918;BME280;22011;59.912;30.300;2022-10-16T00:51:12;101640.78;;;11.77;70.60
35918;BME280;22011;59.912;30.300;2022-10-16T00:53:39;101645.81;;;11.80;70.71
35918;BME280;22011;59.912;30.300;2022-10-16T00:56:07;101629.03;;;11.88;70.06
35918;BME280;22011;59.912;30.300;2022-10-16T00:58:36;101636.22;;;11.87;69.46
35918;BME280;22011;59.912;30.300;2022-10-16T01:01:03;101631.56;;;11.89;69.55
35918;BME280;22011;59.912;30.300;2022-10-16T01:03:33;101622.56;;;11.90;69.88
35918;BME280;22011;59.912;30.300;2022-10-16T01:06:23;101631.19;;;12.02;70.35
35918;BME280;22011;59.912;30.300;2022-10-16T01:09:16;101625.16;;;12.00;70.46
35918;BME280;22011;59.912;30.300;2022-10-16T01:11:52;101633.16;;;11.82;70.70
35918;BME280;22011;59.912;30.300;2022-10-16T01:14:26;101631.38;;;11.73;70.09
35918;BME280;22011;59.912;30.300;2022-10-16T01:16:58;101638.53;;;11.72;70.10
35918;BME280;22011;59.912;30.300;2022-10-16T01:19:40;101635.28;;;11.78;70.76
35918;BME280;22011;59.912;30.300;2022-10-16T01:22:12;101634.63;;;11.67;69.57
35918;BME280;22011;59.912;30.300;2022-10-16T01:24:43;101638.97;;;11.77;69.59
35918;BME280;22011;59.912;30.300;2022-10-16T01:27:15;101637.13;;;11.78;69.88
35918;BME280;22011;59.912;30.300;2022-10-16T01:29:49;101644.16;;;11.79;70.60
35918;BME280;22011;59.912;30.300;2022-10-16T01:32:28;101641.50;;;11.69;70.50
35918;BME280;22011;59.912;30.300;2022-10-16T01:35:00;101642.81;;;11.65;70.63
35918;BME280;22011;59.912;30.300;2022-10-16T01:37:35;101641.66;;;11.68;70.77
35918;BME280;22011;59.912;30.300;2022-10-16T01:40:06;101640.28;;;11.64;70.60
35918;BME280;22011;59.912;30.300;2022-10-16T01:42:40;101640.22;;;11.73;70.45
35918;BME280;22011;59.912;30.300;2022-10-16T01:45:11;101641.34;;;11.71;70.15
35918;BME280;22011;59.912;30.300;2022-10-16T01:47:40;101634.34;;;11.70;69.81
35918;BME280;22011;59.912;30.300;2022-10-16T01:50:10;101635.03;;;11.72;70.05
35918;BME280;22011;59.912;30.300;2022-10-16T01:52:41;101639.97;;;11.67;70.22
35918;BME280;22011;59.912;30.300;2022-10-16T01:55:12;101628.41;;;11.76;69.83
35918;BME280;22011;59.912;30.300;2022-10-16T01:57:45;101638.81;;;11.79;70.12
35918;BME280;22011;59.912;30.300;2022-10-16T02:00:14;101639.06;;;11.76;69.59
35918;BME280;22011;59.912;30.300;2022-10-16T02:02:46;101631.78;;;11.78;70.06
35918;BME280;22011;59.912;30.300;2022-10-16T02:05:20;101636.66;;;11.83;69.97
35918;BME280;22011;59.912;30.300;2022-10-16T02:07:49;101627.81;;;11.82;69.74
35918;BME280;22011;59.912;30.300;2022-10-16T02:10:17;101622.63;;;11.98;68.99
35918;BME280;22011;59.912;30.300;2022-10-16T02:12:49;101617.22;;;12.08;68.61
35918;BME280;22011;59.912;30.300;2022-10-16T02:15:18;101618.97;;;11.99;68.44
35918;BME280;22011;59.912;30.300;2022-10-16T02:17:46;101617.22;;;11.90;68.92
35918;BME280;22011;59.912;30.300;2022-10-16T02:20:13;101617.13;;;11.82;69.00
35918;BME280;22011;59.912;30.300;2022-10-16T02:22:44;101621.50;;;11.83;69.88
35918;BME280;22011;59.912;30.300;2022-10-16T02:25:17;101620.81;;;11.81;69.98
35918;BME280;22011;59.912;30.300;2022-10-16T02:27:53;101624.16;;;11.83;69.99
35918;BME280;22011;59.912;30.300;2022-10-16T02:30:24;101623.00;;;11.86;69.13
35918;BME280;22011;59.912;30.300;2022-10-16T02:32:52;101612.09;;;11.79;68.89
35918;BME280;22011;59.912;30.300;2022-10-16T02:35:23;101617.28;;;11.81;68.96
35918;BME280;22011;59.912;30.300;2022-10-16T02:37:52;101616.88;;;11.75;69.19
35918;BME280;22011;59.912;30.300;2022-10-16T02:40:20;101605.97;;;11.69;69.68
35918;BME280;22011;59.912;30.300;2022-10-16T02:42:52;101607.88;;;11.76;70.14
35918;BME280;22011;59.912;30.300;2022-10-16T02:45:20;101614.97;;;11.68;69.80
35918;BME280;22011;59.912;30.300;2022-10-16T02:47:48;101609.16;;;11.72;69.34
35918;BME280;22011;59.912;30.300;2022-10-16T02:50:16;101601.03;;;11.92;68.55
35918;BME280;22011;59.912;30.300;2022-10-16T02:52:44;101594.78;;;12.01;68.07
35918;BME280;22011;59.912;30.300;2022-10-16T02:55:11;101602.72;;;12.10;68.03
35918;BME280;22011;59.912;30.300;2022-10-16T02:57:39;101592.94;;;12.45;69.47
35918;BME280;22011;59.912;30.300;2022-10-16T03:00:11;101592.72;;;12.38;67.38
35918;BME280;22011;59.912;30.300;2022-10-16T03:02:39;101595.59;;;12.19;68.61
35918;BME280;22011;59.912;30.300;2022-10-16T03:05:08;101595.63;;;12.01;68.42
35918;BME280;22011;59.912;30.300;2022-10-16T03:07:36;101589.97;;;11.87;68.89
35918;BME280;22011;59.912;30.300;2022-10-16T03:10:04;101581.44;;;11.83;69.04
35918;BME280;22011;59.912;30.300;2022-10-16T03:12:32;101589.19;;;11.76;69.00
35918;BME280;22011;59.912;30.300;2022-10-16T03:15:00;101588.16;;;11.87;68.50
35918;BME280;22011;59.912;30.300;2022-10-16T03:17:29;101588.75;;;11.81;69.18
35918;BME280;22011;59.912;30.300;2022-10-16T03:19:56;101583.94;;;11.85;68.86
35918;BME280;22011;59.912;30.300;2022-10-16T03:22:24;101586.28;;;12.23;70.71
35918;BME280;22011;59.912;30.300;2022-10-16T03:24:51;101575.47;;;11.89;68.86
35918;BME280;22011;59.912;30.300;2022-10-16T03:27:19;101576.47;;;11.88;68.76
35918;BME280;22011;59.912;30.300;2022-10-16T03:29:46;101580.91;;;11.79;69.17
35918;BME280;22011;59.912;30.300;2022-10-16T03:32:14;101578.13;;;11.71;69.24
35918;BME280;22011;59.912;30.300;2022-10-16T03:34:43;101585.56;;;11.77;69.65
35918;BME280;22011;59.912;30.300;2022-10-16T03:37:10;101588.88;;;11.62;69.33
35918;BME280;22011;59.912;30.300;2022-10-16T03:39:38;101591.47;;;11.54;70.10
35918;BME280;22011;59.912;30.300;2022-10-16T03:42:06;101589.88;;;11.61;70.10
35918;BME280;22011;59.912;30.300;2022-10-16T03:44:33;101594.81;;;11.56;69.67
35918;BME280;22011;59.912;30.300;2022-10-16T03:47:01;101587.13;;;11.53;69.86
35918;BME280;22011;59.912;30.300;2022-10-16T03:49:28;101587.28;;;11.51;70.45
35918;BME280;22011;59.912;30.300;2022-10-16T03:51:57;101579.97;;;11.71;69.47
35918;BME280;22011;59.912;30.300;2022-10-16T03:54:25;101588.56;;;11.65;69.77
35918;BME280;22011;59.912;30.300;2022-10-16T03:56:52;101584.97;;;11.56;69.94
35918;BME280;22011;59.912;30.300;2022-10-16T03:59:20;101578.41;;;11.51;69.83
35918;BME280;22011;59.912;30.300;2022-10-16T04:01:47;101583.06;;;11.48;69.78
35918;BME280;22011;59.912;30.300;2022-10-16T04:04:15;101586.34;;;11.60;69.46
35918;BME280;22011;59.912;30.300;2022-10-16T04:06:42;101572.25;;;11.68;69.56
35918;BME280;22011;59.912;30.300;2022-10-16T04:09:11;101573.44;;;11.83;68.99
35918;BME280;22011;59.912;30.300;2022-10-16T04:11:39;101572.94;;;11.70;69.21
35918;BME280;22011;59.912;30.300;2022-10-16T04:14:06;101586.41;;;11.78;68.27
35918;BME280;22011;59.912;30.300;2022-10-16T04:16:35;101577.78;;;11.84;68.32
35918;BME280;22011;59.912;30.300;2022-10-16T04:19:02;101571.09;;;11.70;68.72
35918;BME280;22011;59.912;30.300;2022-10-16T04:21:30;101571.94;;;11.53;69.20
35918;BME280;22011;59.912;30.300;2022-10-16T04:23:57;101580.66;;;11.37;69.82
35918;BME280;22011;59.912;30.300;2022-10-16T04:26:26;101575.69;;;11.42;69.85
35918;BME280;22011;59.912;30.300;2022-10-16T04:28:54;101565.25;;;11.31;69.98
35918;BME280;22011;59.912;30.300;2022-10-16T04:31:21;101566.91;;;11.32;70.65
35918;BME280;22011;59.912;30.300;2022-10-16T04:33:49;101563.56;;;11.30;69.50
35918;BME280;22011;59.912;30.300;2022-10-16T04:36:16;101566.16;;;11.40;69.34
35918;BME280;22011;59.912;30.300;2022-10-16T04:38:44;101567.59;;;11.34;69.40
35918;BME280;22011;59.912;30.300;2022-10-16T04:41:11;101562.47;;;11.23;69.86
35918;BME280;22011;59.912;30.300;2022-10-16T04:43:41;101559.50;;;11.26;69.69
35918;BME280;22011;59.912;30.300;2022-10-16T04:46:08;101553.78;;;11.21;69.74
35918;BME280;22011;59.912;30.300;2022-10-16T04:48:36;101558.03;;;11.14;69.84
35918;BME280;22011;59.912;30.300;2022-10-16T04:51:04;101549.94;;;11.06;70.58
35918;BME280;22011;59.912;30.300;2022-10-16T04:53:31;101553.06;;;11.01;70.60
35918;BME280;22011;59.912;30.300;2022-10-16T04:55:59;101543.22;;;11.02;70.18
35918;BME280;22011;59.912;30.300;2022-10-16T04:58:26;101549.84;;;11.25;69.37
35918;BME280;22011;59.912;30.300;2022-10-16T05:00:55;101552.34;;;11.27;69.58
35918;BME280;22011;59.912;30.300;2022-10-16T05:03:23;101547.50;;;11.40;69.26
35918;BME280;22011;59.912;30.300;2022-10-16T05:05:50;101553.88;;;11.29;69.43
35918;BME280;22011;59.912;30.300;2022-10-16T05:08:18;101541.44;;;11.20;69.39
35918;BME280;22011;59.912;30.300;2022-10-16T05:10:45;101530.94;;;11.36;69.18
35918;BME280;22011;59.912;30.300;2022-10-16T05:13:13;101530.63;;;11.39;68.95
35918;BME280;22011;59.912;30.300;2022-10-16T05:15:40;101541.00;;;11.25;68.84
35918;BME280;22011;59.912;30.300;2022-10-16T05:18:09;101537.69;;;11.48;72.78
35918;BME280;22011;59.912;30.300;2022-10-16T05:20:37;101533.53;;;11.28;69.22
35918;BME280;22011;59.912;30.300;2022-10-16T05:23:04;101536.59;;;11.33;69.10
35918;BME280;22011;59.912;30.300;2022-10-16T05:25:32;101544.81;;;11.22;68.65
35918;BME280;22011;59.912;30.300;2022-10-16T05:27:59;101536.94;;;11.21;68.87
35918;BME280;22011;59.912;30.300;2022-10-16T05:30:27;101532.75;;;11.18;68.89
35918;BME280;22011;59.912;30.300;2022-10-16T05:32:54;101531.63;;;11.21;68.91
35918;BME280;22011;59.912;30.300;2022-10-16T05:35:23;101536.50;;;11.25;69.07
35918;BME280;22011;59.912;30.300;2022-10-16T05:37:51;101534.91;;;11.32;68.01
35918;BME280;22011;59.912;30.300;2022-10-16T05:40:19;101534.59;;;11.18;68.85
35918;BME280;22011;59.912;30.300;2022-10-16T05:42:47;101530.00;;;11.10;68.89
35918;BME280;22011;59.912;30.300;2022-10-16T05:45:15;101531.72;;;11.01;69.41
35918;BME280;22011;59.912;30.300;2022-10-16T05:47:42;101529.22;;;11.00;69.78
35918;BME280;22011;59.912;30.300;2022-10-16T05:50:10;101516.31;;;11.40;73.25
35918;BME280;22011;59.912;30.300;2022-10-16T05:52:39;101514.22;;;11.17;69.64
35918;BME280;22011;59.912;30.300;2022-10-16T05:55:07;101512.53;;;10.98;69.20
35918;BME280;22011;59.912;30.300;2022-10-16T05:57:34;101511.94;;;11.04;69.42
35918;BME280;22011;59.912;30.300;2022-10-16T06:00:03;101526.50;;;11.09;69.64
35918;BME280;22011;59.912;30.300;2022-10-16T06:02:39;101523.47;;;11.22;68.73
35918;BME280;22011;59.912;30.300;2022-10-16T06:05:06;101512.72;;;11.32;68.92
35918;BME280;22011;59.912;30.300;2022-10-16T06:07:34;101508.84;;;11.26;68.52
35918;BME280;22011;59.912;30.300;2022-10-16T06:10:05;101521.56;;;11.32;68.99
35918;BME280;22011;59.912;30.300;2022-10-16T06:12:32;101519.09;;;11.57;69.12
35918;BME280;22011;59.912;30.300;2022-10-16T06:15:00;101533.00;;;11.25;68.10
35918;BME280;22011;59.912;30.300;2022-10-16T06:17:27;101519.72;;;11.51;70.03
35918;BME280;22011;59.912;30.300;2022-10-16T06:19:55;101511.81;;;11.23;68.99
35918;BME280;22011;59.912;30.300;2022-10-16T06:22:22;101523.75;;;11.19;68.87
35918;BME280;22011;59.912;30.300;2022-10-16T06:24:50;101517.88;;;11.16;69.23
35918;BME280;22011;59.912;30.300;2022-10-16T06:27:19;101515.16;;;11.25;68.86
35918;BME280;22011;59.912;30.300;2022-10-16T06:29:46;101512.78;;;11.22;68.74
35918;BME280;22011;59.912;30.300;2022-10-16T06:32:13;101501.44;;;11.20;68.88
35918;BME280;22011;59.912;30.300;2022-10-16T06:34:41;101500.91;;;11.17;69.04
35918;BME280;22011;59.912;30.300;2022-10-16T06:37:08;101499.72;;;11.72;68.17
35918;BME280;22011;59.912;30.300;2022-10-16T06:39:36;101498.84;;;12.07;66.13
35918;BME280;22011;59.912;30.300;2022-10-16T06:42:03;101509.84;;;12.04;67.38
35918;BME280;22011;59.912;30.300;2022-10-16T06:44:37;101509.41;;;11.91;66.82
35918;BME280;22011;59.912;30.300;2022-10-16T06:47:04;101519.16;;;11.65;67.34
35918;BME280;22011;59.912;30.300;2022-10-16T06:49:32;101510.47;;;11.63;67.44
35918;BME280;22011;59.912;30.300;2022-10-16T06:51:59;101508.88;;;11.52;67.24
35918;BME280;22011;59.912;30.300;2022-10-16T06:54:27;101503.16;;;11.47;67.81
35918;BME280;22011;59.912;30.300;2022-10-16T06:56:55;101506.13;;;11.44;67.97
35918;BME280;22011;59.912;30.300;2022-10-16T06:59:22;101501.97;;;11.41;68.49
35918;BME280;22011;59.912;30.300;2022-10-16T07:01:51;101496.84;;;11.48;68.69
35918;BME280;22011;59.912;30.300;2022-10-16T07:04:19;101489.59;;;11.58;68.16
35918;BME280;22011;59.912;30.300;2022-10-16T07:06:46;101479.13;;;11.65;67.16
35918;BME280;22011;59.912;30.300;2022-10-16T07:09:14;101488.72;;;11.75;66.86
35918;BME280;22011;59.912;30.300;2022-10-16T07:11:41;101480.59;;;11.77;67.32
35918;BME280;22011;59.912;30.300;2022-10-16T07:14:15;101482.91;;;11.98;67.25
35918;BME280;22011;59.912;30.300;2022-10-16T07:16:43;101485.63;;;12.06;66.21
35918;BME280;22011;59.912;30.300;2022-10-16T07:19:12;101486.00;;;12.11;66.48
35918;BME280;22011;59.912;30.300;2022-10-16T07:21:41;101486.44;;;11.98;66.79
35918;BME280;22011;59.912;30.300;2022-10-16T07:24:12;101485.97;;;12.03;67.08
35918;BME280;22011;59.912;30.300;2022-10-16T07:26:40;101476.47;;;12.08;69.24
35918;BME280;22011;59.912;30.300;2022-10-16T07:29:13;101479.50;;;12.14;67.33
35918;BME280;22011;59.912;30.300;2022-10-16T07:31:40;101486.78;;;12.03;66.78
35918;BME280;22011;59.912;30.300;2022-10-16T07:34:08;101487.94;;;12.27;66.64
35918;BME280;22011;59.912;30.300;2022-10-16T07:36:38;101480.91;;;12.26;66.01
35918;BME280;22011;59.912;30.300;2022-10-16T07:39:05;101478.16;;;12.09;66.67
35918;BME280;22011;59.912;30.300;2022-10-16T07:41:33;101480.31;;;12.06;66.42
35918;BME280;22011;59.912;30.300;2022-10-16T07:44:03;101487.84;;;12.10;66.66
35918;BME280;22011;59.912;30.300;2022-10-16T07:46:31;101486.16;;;12.09;67.32
35918;BME280;22011;59.912;30.300;2022-10-16T07:48:59;101490.00;;;12.07;66.30
35918;BME280;22011;59.912;30.300;2022-10-16T07:51:27;101480.31;;;12.06;66.44
35918;BME280;22011;59.912;30.300;2022-10-16T07:53:56;101483.13;;;12.04;66.68
35918;BME280;22011;59.912;30.300;2022-10-16T07:56:23;101477.41;;;11.99;66.37
35918;BME280;22011;59.912;30.300;2022-10-16T07:58:51;101479.88;;;11.93;66.45
35918;BME280;22011;59.912;30.300;2022-10-16T08:01:19;101476.69;;;11.89;66.86
35918;BME280;22011;59.912;30.300;2022-10-16T08:03:48;101471.59;;;11.78;67.38
35918;BME280;22011;59.912;30.300;2022-10-16T08:06:17;101465.53;;;11.76;67.09
35918;BME280;22011;59.912;30.300;2022-10-16T08:08:44;101468.38;;;11.74;67.45
35918;BME280;22011;59.912;30.300;2022-10-16T08:11:13;101470.03;;;11.75;67.97
35918;BME280;22011;59.912;30.300;2022-10-16T08:13:41;101467.84;;;11.71;67.95
35918;BME280;22011;59.912;30.300;2022-10-16T08:16:09;101470.50;;;11.71;67.41
35918;BME280;22011;59.912;30.300;2022-10-16T08:18:38;101473.84;;;11.73;67.86
35918;BME280;22011;59.912;30.300;2022-10-16T08:21:06;101473.84;;;11.73;68.22
35918;BME280;22011;59.912;30.300;2022-10-16T08:23:34;101480.03;;;11.73;68.12
35918;BME280;22011;59.912;30.300;2022-10-16T08:26:04;101476.09;;;11.77;68.05
35918;BME280;22011;59.912;30.300;2022-10-16T08:28:34;101470.28;;;11.82;67.33
35918;BME280;22011;59.912;30.300;2022-10-16T08:31:09;101472.34;;;11.88;67.63
35918;BME280;22011;59.912;30.300;2022-10-16T08:33:37;101465.94;;;11.81;66.93
35918;BME280;22011;59.912;30.300;2022-10-16T08:36:05;101461.28;;;11.83;67.66
35918;BME280;22011;59.912;30.300;2022-10-16T08:38:33;101464.47;;;11.87;67.15
35918;BME280;22011;59.912;30.300;2022-10-16T08:41:17;101455.06;;;12.00;67.68
35918;BME280;22011;59.912;30.300;2022-10-16T08:46:48;101443.69;;;11.98;66.96
35918;BME280;22011;59.912;30.300;2022-10-16T08:49:18;101438.81;;;11.94;67.18
35918;BME280;22011;59.912;30.300;2022-10-16T08:51:46;101446.84;;;11.94;66.95
35918;BME280;22011;59.912;30.300;2022-10-16T08:54:23;101448.56;;;12.03;67.02
35918;BME280;22011;59.912;30.300;2022-10-16T08:56:54;101452.03;;;11.95;67.11
35918;BME280;22011;59.912;30.300;2022-10-16T08:59:23;101440.66;;;11.93;67.42
35918;BME280;22011;59.912;30.300;2022-10-16T09:01:51;101441.81;;;11.91;67.70
35918;BME280;22011;59.912;30.300;2022-10-16T09:04:52;101445.09;;;12.10;68.38
35918;BME280;22011;59.912;30.300;2022-10-16T09:07:30;101438.03;;;12.01;67.30
35918;BME280;22011;59.912;30.300;2022-10-16T09:10:11;101430.38;;;12.06;67.78
35918;BME280;22011;59.912;30.300;2022-10-16T09:12:43;101421.97;;;12.27;66.84
35918;BME280;22011;59.912;30.300;2022-10-16T09:15:22;101429.72;;;12.04;67.84
35918;BME280;22011;59.912;30.300;2022-10-16T09:17:59;101424.53;;;12.03;67.06
35918;BME280;22011;59.912;30.300;2022-10-16T09:20:32;101436.53;;;11.99;67.51
35918;BME280;22011;59.912;30.300;2022-10-16T09:23:14;101437.94;;;12.11;67.69
35918;BME280;22011;59.912;30.300;2022-10-16T09:25:45;101434.75;;;12.07;66.92
35918;BME280;22011;59.912;30.300;2022-10-16T09:28:14;101431.03;;;12.00;67.15
35918;BME280;22011;59.912;30.300;2022-10-16T09:30:44;101439.56;;;12.04;67.71
35918;BME280;22011;59.912;30.300;2022-10-16T09:33:12;101423.53;;;12.04;67.37
35918;BME280;22011;59.912;30.300;2022-10-16T09:35:43;101430.22;;;12.08;67.15
35918;BME280;22011;59.912;30.300;2022-10-16T09:38:21;101434.63;;;12.17;67.22
35918;BME280;22011;59.912;30.300;2022-10-16T09:40:49;101429.06;;;12.10;66.30
35918;BME280;22011;59.912;30.300;2022-10-16T09:43:21;101420.78;;;12.22;66.26
35918;BME280;22011;59.912;30.300;2022-10-16T09:45:57;101425.50;;;12.28;66.38
35918;BME280;22011;59.912;30.300;2022-10-16T09:48:28;101417.63;;;12.26;66.48
35918;BME280;22011;59.912;30.300;2022-10-16T09:50:58;101405.78;;;12.29;66.26
35918;BME280;22011;59.912;30.300;2022-10-16T09:53:37;101417.19;;;12.39;67.11
35918;BME280;22011;59.912;30.300;2022-10-16T09:56:06;101417.78;;;12.25;66.60
35918;BME280;22011;59.912;30.300;2022-10-16T09:58:33;101412.44;;;12.25;66.93
35918;BME280;22011;59.912;30.300;2022-10-16T10:01:02;101407.47;;;12.30;66.46
35918;BME280;22011;59.912;30.300;2022-10-16T10:03:36;101407.84;;;12.43;66.72
35918;BME280;22011;59.912;30.300;2022-10-16T10:06:15;101420.03;;;12.37;66.64
35918;BME280;22011;59.912;30.300;2022-10-16T10:08:58;101430.06;;;12.43;67.67
35918;BME280;22011;59.912;30.300;2022-10-16T10:11:48;101441.41;;;12.37;67.67
35918;BME280;22011;59.912;30.300;2022-10-16T10:14:27;101434.47;;;12.19;67.50
35918;BME280;22011;59.912;30.300;2022-10-16T10:17:10;101441.53;;;12.28;68.26
35918;BME280;22011;59.912;30.300;2022-10-16T10:19:40;101442.63;;;12.17;67.71
35918;BME280;22011;59.912;30.300;2022-10-16T10:22:20;101439.00;;;12.26;68.16
35918;BME280;22011;59.912;30.300;2022-10-16T10:27:48;101437.53;;;12.32;67.86
35918;BME280;22011;59.912;30.300;2022-10-16T10:30:23;101443.72;;;12.32;68.12
35918;BME280;22011;59.912;30.300;2022-10-16T10:33:03;101445.22;;;12.35;68.16
35918;BME280;22011;59.912;30.300;2022-10-16T10:35:42;101441.88;;;12.33;68.40
35918;BME280;22011;59.912;30.300;2022-10-16T10:38:25;101442.25;;;12.38;68.57
35918;BME280;22011;59.912;30.300;2022-10-16T10:41:05;101442.75;;;12.41;68.37
35918;BME280;22011;59.912;30.300;2022-10-16T10:43:48;101444.75;;;12.39;68.19
35918;BME280;22011;59.912;30.300;2022-10-16T10:46:28;101438.38;;;12.32;68.52
35918;BME280;22011;59.912;30.300;2022-10-16T10:49:22;101434.06;;;12.39;68.12
35918;BME280;22011;59.912;30.300;2022-10-16T10:52:02;101432.72;;;12.35;67.89
35918;BME280;22011;59.912;30.300;2022-10-16T10:54:37;101451.69;;;12.24;68.30
35918;BME280;22011;59.912;30.300;2022-10-16T10:57:15;101449.84;;;12.25;67.92
35918;BME280;22011;59.912;30.300;2022-10-16T11:00:06;101439.72;;;12.36;68.27
35918;BME280;22011;59.912;30.300;2022-10-16T11:02:41;101442.34;;;12.28;68.09
35918;BME280;22011;59.912;30.300;2022-10-16T11:05:41;101441.09;;;12.40;68.33
35918;BME280;22011;59.912;30.300;2022-10-16T11:08:14;101434.00;;;12.23;68.33
35918;BME280;22011;59.912;30.300;2022-10-16T11:10:50;101426.97;;;12.22;68.33
35918;BME280;22011;59.912;30.300;2022-10-16T11:13:28;101435.16;;;12.21;68.95
35918;BME280;22011;59.912;30.300;2022-10-16T11:16:01;101419.06;;;12.13;69.00
35918;BME280;22011;59.912;30.300;2022-10-16T11:18:33;101417.72;;;12.08;69.36
35918;BME280;22011;59.912;30.300;2022-10-16T11:21:09;101408.03;;;12.07;69.72
35918;BME280;22011;59.912;30.300;2022-10-16T11:23:43;101418.88;;;12.06;69.89
35918;BME280;22011;59.912;30.300;2022-10-16T11:26:16;101419.66;;;11.98;69.69
35918;BME280;22011;59.912;30.300;2022-10-16T11:28:49;101426.34;;;12.02;70.27
35918;BME280;22011;59.912;30.300;2022-10-16T11:31:22;101423.31;;;11.97;70.08
35918;BME280;22011;59.912;30.300;2022-10-16T11:33:59;101428.66;;;11.97;70.80
35918;BME280;22011;59.912;30.300;2022-10-16T11:36:34;101425.69;;;12.00;70.33
35918;BME280;22011;59.912;30.300;2022-10-16T11:39:14;101434.38;;;12.02;70.95
35918;BME280;22011;59.912;30.300;2022-10-16T11:41:48;101431.28;;;11.89;71.11
35918;BME280;22011;59.912;30.300;2022-10-16T11:44:24;101433.97;;;11.89;71.63
35918;BME280;22011;59.912;30.300;2022-10-16T11:47:03;101430.97;;;11.92;71.71
35918;BME280;22011;59.912;30.300;2022-10-16T11:49:36;101435.56;;;11.82;71.35
35918;BME280;22011;59.912;30.300;2022-10-16T11:52:14;101429.97;;;11.93;71.73
35918;BME280;22011;59.912;30.300;2022-10-16T11:54:47;101433.59;;;11.84;71.71
35918;BME280;22011;59.912;30.300;2022-10-16T11:57:20;101437.41;;;11.82;72.06
35918;BME280;22011;59.912;30.300;2022-10-16T11:59:54;101435.25;;;11.85;72.00
35918;BME280;22011;59.912;30.300;2022-10-16T12:02:37;101436.41;;;11.83;72.55
35918;BME280;22011;59.912;30.300;2022-10-16T12:05:14;101430.72;;;11.77;72.43
35918;BME280;22011;59.912;30.300;2022-10-16T12:07:54;101421.00;;;11.76;73.16
35918;BME280;22011;59.912;30.300;2022-10-16T12:10:26;101420.78;;;11.70;72.80
35918;BME280;22011;59.912;30.300;2022-10-16T12:12:54;101426.44;;;11.67;72.78
35918;BME280;22011;59.912;30.300;2022-10-16T12:15:25;101431.78;;;11.67;73.24
35918;BME280;22011;59.912;30.300;2022-10-16T12:17:53;101424.75;;;11.66;73.32
35918;BME280;22011;59.912;30.300;2022-10-16T12:20:27;101423.59;;;11.68;73.58
35918;BME280;22011;59.912;30.300;2022-10-16T12:22:59;101421.94;;;11.67;73.41
35918;BME280;22011;59.912;30.300;2022-10-16T12:25:30;101424.75;;;11.66;73.78
35918;BME280;22011;59.912;30.300;2022-10-16T12:28:01;101422.81;;;11.94;73.67
35918;BME280;22011;59.912;30.300;2022-10-16T12:30:32;101417.59;;;11.66;73.30
35918;BME280;22011;59.912;30.300;2022-10-16T12:33:01;101406.22;;;11.64;74.12
35918;BME280;22011;59.912;30.300;2022-10-16T12:35:31;101400.19;;;11.80;73.17
35918;BME280;22011;59.912;30.300;2022-10-16T12:38:15;101397.19;;;12.09;73.70
35918;BME280;22011;59.912;30.300;2022-10-16T12:40:44;101399.19;;;11.81;73.23
35918;BME280;22011;59.912;30.300;2022-10-16T12:43:24;101394.00;;;12.05;73.43
35918;BME280;22011;59.912;30.300;2022-10-16T12:46:03;101389.72;;;11.87;74.16
35918;BME280;22011;59.912;30.300;2022-10-16T12:48:31;101396.22;;;11.66;73.89
35918;BME280;22011;59.912;30.300;2022-10-16T12:51:10;101396.84;;;11.78;75.17
35918;BME280;22011;59.912;30.300;2022-10-16T12:53:39;101398.69;;;11.60;74.68
35918;BME280;22011;59.912;30.300;2022-10-16T12:56:13;101391.72;;;11.67;75.43
35918;BME280;22011;59.912;30.300;2022-10-16T12:58:53;101399.44;;;11.70;75.29
35918;BME280;22011;59.912;30.300;2022-10-16T13:01:37;101393.47;;;11.76;75.88
35918;BME280;22011;59.912;30.300;2022-10-16T13:04:23;101388.13;;;11.76;75.55
35918;BME280;22011;59.912;30.300;2022-10-16T13:07:00;101381.72;;;11.69;75.57